sensor_id;sensor_type;location;lat;lon;timestamp;P1;durP1;ratioP1;P2;durP2;ratioP2
68310;SDS011;55157;51.036;17.058;2022-08-25T00:00:30;36.28;;;26.48;;
68310;SDS011;55157;51.036;17.058;2022-08-25T00:02:56;40.17;;;28.45;;
68310;SDS011;55157;51.036;17.058;2022-08-25T00:05:25;40.00;;;28.30;;
68310;SDS011;55157;51.036;17.058;2022-08-25T00:07:50;36.58;;;27.00;;
68310;SDS011;55157;51.036;17.058;2022-08-25T00:10:15;37.22;;;27.38;;
68310;SDS011;55157;51.036;17.058;2022-08-25T00:12:41;48.97;;;27.13;;
68310;SDS011;55157;51.036;17.058;2022-08-25T00:15:06;33.42;;;25.27;;
68310;SDS011;55157;51.036;17.058;2022-08-25T00:17:32;33.95;;;26.20;;
68310;SDS011;55157;51.036;17.058;2022-08-25T00:19:59;38.80;;;26.67;;
68310;SDS011;55157;51.036;17.058;2022-08-25T00:22:24;37.50;;;27.00;;
68310;SDS011;55157;51.036;17.058;2022-08-25T00:24:49;35.80;;;26.83;;
68310;SDS011;55157;51.036;17.058;2022-08-25T00:27:14;40.72;;;29.20;;
68310;SDS011;55157;51.036;17.058;2022-08-25T00:29:40;42.70;;;28.92;;
68310;SDS011;55157;51.036;17.058;2022-08-25T00:32:05;43.50;;;29.02;;
68310;SDS011;55157;51.036;17.058;2022-08-25T00:34:32;37.45;;;29.48;;
68310;SDS011;55157;51.036;17.058;2022-08-25T00:36:59;36.72;;;26.63;;
68310;SDS011;55157;51.036;17.058;2022-08-25T00:39:25;42.58;;;29.17;;
68310;SDS011;55157;51.036;17.058;2022-08-25T00:41:51;38.08;;;28.60;;
68310;SDS011;55157;51.036;17.058;2022-08-25T00:44:17;48.00;;;30.85;;
68310;SDS011;55157;51.036;17.058;2022-08-25T00:46:44;36.67;;;28.45;;
68310;SDS011;55157;51.036;17.058;2022-08-25T00:49:10;43.83;;;29.48;;
68310;SDS011;55157;51.036;17.058;2022-08-25T00:51:39;41.55;;;29.80;;
68310;SDS011;55157;51.036;17.058;2022-08-25T00:54:07;44.97;;;29.80;;
68310;SDS011;55157;51.036;17.058;2022-08-25T00:56:34;43.00;;;30.50;;
68310;SDS011;55157;51.036;17.058;2022-08-25T00:59:00;40.53;;;28.67;;
68310;SDS011;55157;51.036;17.058;2022-08-25T01:01:26;43.53;;;31.27;;
68310;SDS011;55157;51.036;17.058;2022-08-25T01:03:52;38.72;;;29.75;;
68310;SDS011;55157;51.036;17.058;2022-08-25T01:06:17;44.67;;;30.98;;
68310;SDS011;55157;51.036;17.058;2022-08-25T01:08:42;36.97;;;30.38;;
68310;SDS011;55157;51.036;17.058;2022-08-25T01:11:09;36.63;;;29.02;;
68310;SDS011;55157;51.036;17.058;2022-08-25T01:13:36;43.53;;;30.25;;
68310;SDS011;55157;51.036;17.058;2022-08-25T01:16:03;38.78;;;29.35;;
68310;SDS011;55157;51.036;17.058;2022-08-25T01:18:28;36.83;;;28.95;;
68310;SDS011;55157;51.036;17.058;2022-08-25T01:21:07;48.80;;;29.98;;
68310;SDS011;55157;51.036;17.058;2022-08-25T01:23:32;41.53;;;29.80;;
68310;SDS011;55157;51.036;17.058;2022-08-25T01:25:59;38.42;;;29.35;;
68310;SDS011;55157;51.036;17.058;2022-08-25T01:28:25;46.47;;;30.95;;
68310;SDS011;55157;51.036;17.058;2022-08-25T01:30:51;44.97;;;33.45;;
68310;SDS011;55157;51.036;17.058;2022-08-25T01:33:17;39.47;;;29.45;;
68310;SDS011;55157;51.036;17.058;2022-08-25T01:35:42;45.58;;;30.08;;
68310;SDS011;55157;51.036;17.058;2022-08-25T01:38:09;39.75;;;30.25;;
68310;SDS011;55157;51.036;17.058;2022-08-25T01:40:35;37.92;;;29.17;;
68310;SDS011;55157;51.036;17.058;2022-08-25T01:43:02;46.03;;;32.30;;
68310;SDS011;55157;51.036;17.058;2022-08-25T01:45:30;35.00;;;27.77;;
68310;SDS011;55157;51.036;17.058;2022-08-25T01:47:56;46.30;;;30.40;;
68310;SDS011;55157;51.036;17.058;2022-08-25T01:50:21;41.65;;;28.55;;
68310;SDS011;55157;51.036;17.058;2022-08-25T01:52:49;43.50;;;32.60;;
68310;SDS011;55157;51.036;17.058;2022-08-25T01:55:17;44.17;;;30.20;;
68310;SDS011;55157;51.036;17.058;2022-08-25T01:57:42;38.03;;;29.98;;
68310;SDS011;55157;51.036;17.058;2022-08-25T02:00:08;47.70;;;31.48;;
68310;SDS011;55157;51.036;17.058;2022-08-25T02:02:34;38.15;;;29.98;;
68310;SDS011;55157;51.036;17.058;2022-08-25T02:04:59;44.30;;;30.83;;
68310;SDS011;55157;51.036;17.058;2022-08-25T02:07:24;40.13;;;31.35;;
68310;SDS011;55157;51.036;17.058;2022-08-25T02:09:50;39.35;;;31.58;;
68310;SDS011;55157;51.036;17.058;2022-08-25T02:12:16;39.80;;;31.27;;
68310;SDS011;55157;51.036;17.058;2022-08-25T02:14:42;39.30;;;30.23;;
68310;SDS011;55157;51.036;17.058;2022-08-25T02:17:07;39.28;;;29.45;;
68310;SDS011;55157;51.036;17.058;2022-08-25T02:19:32;42.10;;;30.50;;
68310;SDS011;55157;51.036;17.058;2022-08-25T02:21:58;38.35;;;30.92;;
68310;SDS011;55157;51.036;17.058;2022-08-25T02:24:23;44.63;;;29.75;;
68310;SDS011;55157;51.036;17.058;2022-08-25T02:26:49;44.15;;;29.95;;
68310;SDS011;55157;51.036;17.058;2022-08-25T02:29:16;43.10;;;30.55;;
68310;SDS011;55157;51.036;17.058;2022-08-25T02:31:41;39.78;;;31.52;;
68310;SDS011;55157;51.036;17.058;2022-08-25T02:34:08;40.78;;;30.98;;
68310;SDS011;55157;51.036;17.058;2022-08-25T02:36:33;45.97;;;32.97;;
68310;SDS011;55157;51.036;17.058;2022-08-25T02:38:58;44.50;;;33.17;;
68310;SDS011;55157;51.036;17.058;2022-08-25T02:41:24;42.58;;;31.35;;
68310;SDS011;55157;51.036;17.058;2022-08-25T02:43:50;42.60;;;31.95;;
68310;SDS011;55157;51.036;17.058;2022-08-25T02:46:17;43.65;;;30.88;;
68310;SDS011;55157;51.036;17.058;2022-08-25T02:48:43;44.53;;;32.53;;
68310;SDS011;55157;51.036;17.058;2022-08-25T02:51:08;58.30;;;32.95;;
68310;SDS011;55157;51.036;17.058;2022-08-25T02:53:34;50.22;;;33.20;;
68310;SDS011;55157;51.036;17.058;2022-08-25T02:56:00;54.97;;;31.63;;
68310;SDS011;55157;51.036;17.058;2022-08-25T02:58:25;51.20;;;33.13;;
68310;SDS011;55157;51.036;17.058;2022-08-25T03:00:50;54.22;;;32.15;;
68310;SDS011;55157;51.036;17.058;2022-08-25T03:03:17;49.92;;;29.83;;
68310;SDS011;55157;51.036;17.058;2022-08-25T03:05:43;44.90;;;30.10;;
68310;SDS011;55157;51.036;17.058;2022-08-25T03:08:08;52.22;;;32.60;;
68310;SDS011;55157;51.036;17.058;2022-08-25T03:10:35;55.72;;;33.20;;
68310;SDS011;55157;51.036;17.058;2022-08-25T03:13:00;51.28;;;31.52;;
68310;SDS011;55157;51.036;17.058;2022-08-25T03:15:26;51.55;;;29.33;;
68310;SDS011;55157;51.036;17.058;2022-08-25T03:17:51;50.60;;;31.40;;
68310;SDS011;55157;51.036;17.058;2022-08-25T03:20:17;57.97;;;31.90;;
68310;SDS011;55157;51.036;17.058;2022-08-25T03:22:43;54.10;;;32.05;;
68310;SDS011;55157;51.036;17.058;2022-08-25T03:25:08;59.53;;;30.17;;
68310;SDS011;55157;51.036;17.058;2022-08-25T03:27:34;51.20;;;31.77;;
68310;SDS011;55157;51.036;17.058;2022-08-25T03:29:59;41.10;;;31.08;;
68310;SDS011;55157;51.036;17.058;2022-08-25T03:32:24;49.50;;;30.42;;
68310;SDS011;55157;51.036;17.058;2022-08-25T03:34:49;49.47;;;33.00;;
68310;SDS011;55157;51.036;17.058;2022-08-25T03:37:16;48.22;;;31.15;;
68310;SDS011;55157;51.036;17.058;2022-08-25T03:39:41;48.28;;;28.95;;
68310;SDS011;55157;51.036;17.058;2022-08-25T03:42:07;46.95;;;30.50;;
68310;SDS011;55157;51.036;17.058;2022-08-25T03:44:32;55.55;;;33.05;;
68310;SDS011;55157;51.036;17.058;2022-08-25T03:46:57;47.80;;;32.67;;
68310;SDS011;55157;51.036;17.058;2022-08-25T03:49:22;42.22;;;29.95;;
68310;SDS011;55157;51.036;17.058;2022-08-25T03:51:48;53.33;;;33.70;;
68310;SDS011;55157;51.036;17.058;2022-08-25T03:54:16;57.90;;;36.00;;
68310;SDS011;55157;51.036;17.058;2022-08-25T03:56:41;58.08;;;37.10;;
68310;SDS011;55157;51.036;17.058;2022-08-25T03:59:07;64.07;;;35.78;;
68310;SDS011;55157;51.036;17.058;2022-08-25T04:01:32;59.20;;;33.47;;
68310;SDS011;55157;51.036;17.058;2022-08-25T04:03:57;60.78;;;35.20;;
68310;SDS011;55157;51.036;17.058;2022-08-25T04:06:22;49.63;;;34.28;;
68310;SDS011;55157;51.036;17.058;2022-08-25T04:08:48;53.60;;;36.92;;
68310;SDS011;55157;51.036;17.058;2022-08-25T04:11:16;49.40;;;34.42;;
68310;SDS011;55157;51.036;17.058;2022-08-25T04:13:41;52.65;;;34.83;;
68310;SDS011;55157;51.036;17.058;2022-08-25T04:16:09;119.25;;;42.97;;
68310;SDS011;55157;51.036;17.058;2022-08-25T04:18:34;53.40;;;38.08;;
68310;SDS011;55157;51.036;17.058;2022-08-25T04:21:03;54.80;;;39.63;;
68310;SDS011;55157;51.036;17.058;2022-08-25T04:23:29;48.70;;;36.75;;
68310;SDS011;55157;51.036;17.058;2022-08-25T04:25:54;51.40;;;37.38;;
68310;SDS011;55157;51.036;17.058;2022-08-25T04:28:21;52.13;;;37.10;;
68310;SDS011;55157;51.036;17.058;2022-08-25T04:30:46;53.80;;;39.38;;
68310;SDS011;55157;51.036;17.058;2022-08-25T04:33:11;175.13;;;43.67;;
68310;SDS011;55157;51.036;17.058;2022-08-25T04:35:36;51.67;;;38.22;;
68310;SDS011;55157;51.036;17.058;2022-08-25T04:38:01;48.78;;;35.88;;
68310;SDS011;55157;51.036;17.058;2022-08-25T04:40:27;52.85;;;37.35;;
68310;SDS011;55157;51.036;17.058;2022-08-25T04:42:52;46.92;;;34.97;;
68310;SDS011;55157;51.036;17.058;2022-08-25T04:45:19;49.15;;;33.75;;
68310;SDS011;55157;51.036;17.058;2022-08-25T04:47:44;58.65;;;36.55;;
68310;SDS011;55157;51.036;17.058;2022-08-25T04:50:09;60.83;;;37.33;;
68310;SDS011;55157;51.036;17.058;2022-08-25T04:52:35;64.47;;;37.72;;
68310;SDS011;55157;51.036;17.058;2022-08-25T04:55:00;72.50;;;42.33;;
68310;SDS011;55157;51.036;17.058;2022-08-25T04:57:25;63.30;;;41.25;;
68310;SDS011;55157;51.036;17.058;2022-08-25T04:59:51;80.63;;;45.67;;
68310;SDS011;55157;51.036;17.058;2022-08-25T05:02:17;72.95;;;41.72;;
68310;SDS011;55157;51.036;17.058;2022-08-25T05:04:43;77.03;;;44.22;;
68310;SDS011;55157;51.036;17.058;2022-08-25T05:07:08;79.65;;;46.05;;
68310;SDS011;55157;51.036;17.058;2022-08-25T05:09:33;80.18;;;46.05;;
68310;SDS011;55157;51.036;17.058;2022-08-25T05:11:59;64.47;;;43.50;;
68310;SDS011;55157;51.036;17.058;2022-08-25T05:14:24;65.70;;;42.65;;
68310;SDS011;55157;51.036;17.058;2022-08-25T05:16:49;57.88;;;36.55;;
68310;SDS011;55157;51.036;17.058;2022-08-25T05:19:16;60.70;;;40.13;;
68310;SDS011;55157;51.036;17.058;2022-08-25T05:21:41;101.13;;;46.03;;
68310;SDS011;55157;51.036;17.058;2022-08-25T05:24:07;65.63;;;38.10;;
68310;SDS011;55157;51.036;17.058;2022-08-25T05:26:32;45.88;;;32.05;;
68310;SDS011;55157;51.036;17.058;2022-08-25T05:28:59;52.88;;;32.70;;
68310;SDS011;55157;51.036;17.058;2022-08-25T05:31:25;43.10;;;31.92;;
68310;SDS011;55157;51.036;17.058;2022-08-25T05:33:50;40.47;;;28.98;;
68310;SDS011;55157;51.036;17.058;2022-08-25T05:36:18;40.88;;;31.10;;
68310;SDS011;55157;51.036;17.058;2022-08-25T05:38:43;48.70;;;31.73;;
68310;SDS011;55157;51.036;17.058;2022-08-25T05:41:09;74.07;;;38.65;;
68310;SDS011;55157;51.036;17.058;2022-08-25T05:43:34;301.10;;;48.05;;
68310;SDS011;55157;51.036;17.058;2022-08-25T05:46:00;70.47;;;40.33;;
68310;SDS011;55157;51.036;17.058;2022-08-25T05:48:25;55.50;;;36.80;;
68310;SDS011;55157;51.036;17.058;2022-08-25T05:50:51;57.15;;;34.72;;
68310;SDS011;55157;51.036;17.058;2022-08-25T05:53:17;128.07;;;39.13;;
68310;SDS011;55157;51.036;17.058;2022-08-25T05:55:43;52.65;;;36.47;;
68310;SDS011;55157;51.036;17.058;2022-08-25T05:58:08;52.08;;;35.65;;
68310;SDS011;55157;51.036;17.058;2022-08-25T06:00:33;37.95;;;30.05;;
68310;SDS011;55157;51.036;17.058;2022-08-25T06:02:59;41.05;;;30.05;;
68310;SDS011;55157;51.036;17.058;2022-08-25T06:05:24;41.42;;;29.48;;
68310;SDS011;55157;51.036;17.058;2022-08-25T06:07:50;31.58;;;26.98;;
68310;SDS011;55157;51.036;17.058;2022-08-25T06:10:17;38.97;;;29.00;;
68310;SDS011;55157;51.036;17.058;2022-08-25T06:12:43;104.63;;;38.05;;
68310;SDS011;55157;51.036;17.058;2022-08-25T06:15:09;52.55;;;35.35;;
68310;SDS011;55157;51.036;17.058;2022-08-25T06:17:35;45.63;;;30.42;;
68310;SDS011;55157;51.036;17.058;2022-08-25T06:20:00;46.70;;;33.13;;
68310;SDS011;55157;51.036;17.058;2022-08-25T06:22:25;41.90;;;30.75;;
68310;SDS011;55157;51.036;17.058;2022-08-25T06:24:51;44.53;;;29.65;;
68310;SDS011;55157;51.036;17.058;2022-08-25T06:27:17;38.10;;;27.83;;
68310;SDS011;55157;51.036;17.058;2022-08-25T06:29:43;38.70;;;28.38;;
68310;SDS011;55157;51.036;17.058;2022-08-25T06:32:08;41.67;;;28.58;;
68310;SDS011;55157;51.036;17.058;2022-08-25T06:34:34;40.40;;;30.20;;
68310;SDS011;55157;51.036;17.058;2022-08-25T06:36:59;44.33;;;29.05;;
68310;SDS011;55157;51.036;17.058;2022-08-25T06:39:24;60.47;;;30.10;;
68310;SDS011;55157;51.036;17.058;2022-08-25T06:41:50;53.85;;;32.35;;
68310;SDS011;55157;51.036;17.058;2022-08-25T06:44:17;39.08;;;30.38;;
68310;SDS011;55157;51.036;17.058;2022-08-25T06:46:42;55.28;;;31.70;;
68310;SDS011;55157;51.036;17.058;2022-08-25T06:49:07;41.38;;;29.80;;
68310;SDS011;55157;51.036;17.058;2022-08-25T06:51:32;41.60;;;30.27;;
68310;SDS011;55157;51.036;17.058;2022-08-25T06:53:58;40.63;;;31.35;;
68310;SDS011;55157;51.036;17.058;2022-08-25T06:56:24;44.63;;;31.30;;
68310;SDS011;55157;51.036;17.058;2022-08-25T06:58:49;44.28;;;31.15;;
68310;SDS011;55157;51.036;17.058;2022-08-25T07:01:17;39.92;;;28.30;;
68310;SDS011;55157;51.036;17.058;2022-08-25T07:03:42;53.17;;;33.58;;
68310;SDS011;55157;51.036;17.058;2022-08-25T07:06:08;45.78;;;32.80;;
68310;SDS011;55157;51.036;17.058;2022-08-25T07:08:33;46.50;;;31.10;;
68310;SDS011;55157;51.036;17.058;2022-08-25T07:11:02;37.55;;;30.77;;
68310;SDS011;55157;51.036;17.058;2022-08-25T07:13:28;36.20;;;28.48;;
68310;SDS011;55157;51.036;17.058;2022-08-25T07:15:53;42.63;;;29.10;;
68310;SDS011;55157;51.036;17.058;2022-08-25T07:18:20;36.45;;;29.02;;
68310;SDS011;55157;51.036;17.058;2022-08-25T07:20:45;31.52;;;25.85;;
68310;SDS011;55157;51.036;17.058;2022-08-25T07:23:10;28.60;;;24.50;;
68310;SDS011;55157;51.036;17.058;2022-08-25T07:25:36;31.33;;;24.88;;
68310;SDS011;55157;51.036;17.058;2022-08-25T07:28:02;29.85;;;24.80;;
68310;SDS011;55157;51.036;17.058;2022-08-25T07:30:27;34.45;;;24.25;;
68310;SDS011;55157;51.036;17.058;2022-08-25T07:32:53;32.25;;;26.33;;
68310;SDS011;55157;51.036;17.058;2022-08-25T07:35:19;33.28;;;26.13;;
68310;SDS011;55157;51.036;17.058;2022-08-25T07:37:45;41.25;;;28.58;;
68310;SDS011;55157;51.036;17.058;2022-08-25T07:40:12;50.03;;;31.23;;
68310;SDS011;55157;51.036;17.058;2022-08-25T07:42:37;38.30;;;28.63;;
68310;SDS011;55157;51.036;17.058;2022-08-25T07:45:03;29.25;;;23.75;;
68310;SDS011;55157;51.036;17.058;2022-08-25T07:47:29;24.50;;;21.92;;
68310;SDS011;55157;51.036;17.058;2022-08-25T07:49:54;32.50;;;24.13;;
68310;SDS011;55157;51.036;17.058;2022-08-25T07:52:20;26.25;;;22.52;;
68310;SDS011;55157;51.036;17.058;2022-08-25T07:54:46;31.58;;;24.17;;
68310;SDS011;55157;51.036;17.058;2022-08-25T07:57:11;27.90;;;22.92;;
68310;SDS011;55157;51.036;17.058;2022-08-25T07:59:38;31.70;;;23.00;;
68310;SDS011;55157;51.036;17.058;2022-08-25T08:02:03;30.05;;;22.63;;
68310;SDS011;55157;51.036;17.058;2022-08-25T08:04:29;23.85;;;21.30;;
68310;SDS011;55157;51.036;17.058;2022-08-25T08:06:54;30.20;;;23.27;;
68310;SDS011;55157;51.036;17.058;2022-08-25T08:09:21;33.83;;;21.52;;
68310;SDS011;55157;51.036;17.058;2022-08-25T08:11:46;26.30;;;21.48;;
68310;SDS011;55157;51.036;17.058;2022-08-25T08:14:11;29.17;;;21.95;;
68310;SDS011;55157;51.036;17.058;2022-08-25T08:16:36;24.58;;;20.05;;
68310;SDS011;55157;51.036;17.058;2022-08-25T08:19:02;27.60;;;21.00;;
68310;SDS011;55157;51.036;17.058;2022-08-25T08:21:28;23.00;;;18.73;;
68310;SDS011;55157;51.036;17.058;2022-08-25T08:23:54;29.67;;;18.42;;
68310;SDS011;55157;51.036;17.058;2022-08-25T08:26:21;31.17;;;17.85;;
68310;SDS011;55157;51.036;17.058;2022-08-25T08:28:46;27.73;;;18.35;;
68310;SDS011;55157;51.036;17.058;2022-08-25T08:31:12;23.67;;;19.00;;
68310;SDS011;55157;51.036;17.058;2022-08-25T08:33:37;30.05;;;16.10;;
68310;SDS011;55157;51.036;17.058;2022-08-25T08:36:03;19.48;;;13.85;;
68310;SDS011;55157;51.036;17.058;2022-08-25T08:38:29;22.98;;;14.77;;
68310;SDS011;55157;51.036;17.058;2022-08-25T08:40:57;27.85;;;12.52;;
68310;SDS011;55157;51.036;17.058;2022-08-25T08:43:25;18.80;;;11.52;;
68310;SDS011;55157;51.036;17.058;2022-08-25T08:45:51;17.63;;;10.85;;
68310;SDS011;55157;51.036;17.058;2022-08-25T08:48:20;15.07;;;7.97;;
68310;SDS011;55157;51.036;17.058;2022-08-25T08:53:17;27.88;;;10.30;;
68310;SDS011;55157;51.036;17.058;2022-08-25T08:55:43;17.20;;;8.50;;
68310;SDS011;55157;51.036;17.058;2022-08-25T08:58:09;15.77;;;9.38;;
68310;SDS011;55157;51.036;17.058;2022-08-25T09:00:38;17.40;;;8.77;;
68310;SDS011;55157;51.036;17.058;2022-08-25T09:03:04;16.95;;;9.45;;
68310;SDS011;55157;51.036;17.058;2022-08-25T09:05:30;16.88;;;8.15;;
68310;SDS011;55157;51.036;17.058;2022-08-25T09:07:57;18.65;;;8.30;;
68310;SDS011;55157;51.036;17.058;2022-08-25T09:10:23;18.55;;;8.35;;
68310;SDS011;55157;51.036;17.058;2022-08-25T09:12:52;17.50;;;7.95;;
68310;SDS011;55157;51.036;17.058;2022-08-25T09:15:22;19.95;;;8.57;;
68310;SDS011;55157;51.036;17.058;2022-08-25T09:17:58;15.97;;;7.97;;
68310;SDS011;55157;51.036;17.058;2022-08-25T09:20:35;23.73;;;8.52;;
68310;SDS011;55157;51.036;17.058;2022-08-25T09:23:07;22.13;;;9.02;;
68310;SDS011;55157;51.036;17.058;2022-08-25T09:25:38;22.17;;;9.65;;
68310;SDS011;55157;51.036;17.058;2022-08-25T09:28:07;25.95;;;9.40;;
68310;SDS011;55157;51.036;17.058;2022-08-25T09:30:36;16.63;;;8.00;;
68310;SDS011;55157;51.036;17.058;2022-08-25T09:33:05;18.70;;;7.85;;
68310;SDS011;55157;51.036;17.058;2022-08-25T09:35:32;21.30;;;8.35;;
68310;SDS011;55157;51.036;17.058;2022-08-25T09:37:57;26.33;;;7.55;;
68310;SDS011;55157;51.036;17.058;2022-08-25T09:40:23;20.77;;;7.60;;
68310;SDS011;55157;51.036;17.058;2022-08-25T09:42:49;23.27;;;6.15;;
68310;SDS011;55157;51.036;17.058;2022-08-25T09:45:15;12.57;;;5.65;;
68310;SDS011;55157;51.036;17.058;2022-08-25T09:47:41;17.05;;;6.22;;
68310;SDS011;55157;51.036;17.058;2022-08-25T09:50:11;21.10;;;6.25;;
68310;SDS011;55157;51.036;17.058;2022-08-25T09:52:38;23.05;;;6.70;;
68310;SDS011;55157;51.036;17.058;2022-08-25T09:57:45;23.10;;;5.93;;
68310;SDS011;55157;51.036;17.058;2022-08-25T10:00:11;28.88;;;6.35;;
68310;SDS011;55157;51.036;17.058;2022-08-25T10:02:37;18.85;;;6.57;;
68310;SDS011;55157;51.036;17.058;2022-08-25T10:05:10;25.60;;;6.40;;
68310;SDS011;55157;51.036;17.058;2022-08-25T10:07:47;25.25;;;6.95;;
68310;SDS011;55157;51.036;17.058;2022-08-25T10:10:15;16.35;;;5.15;;
68310;SDS011;55157;51.036;17.058;2022-08-25T10:12:41;19.80;;;6.57;;
68310;SDS011;55157;51.036;17.058;2022-08-25T10:15:15;21.77;;;6.90;;
68310;SDS011;55157;51.036;17.058;2022-08-25T10:17:40;34.13;;;7.63;;
68310;SDS011;55157;51.036;17.058;2022-08-25T10:20:15;25.53;;;6.33;;
68310;SDS011;55157;51.036;17.058;2022-08-25T10:22:41;22.58;;;6.18;;
68310;SDS011;55157;51.036;17.058;2022-08-25T10:25:07;18.13;;;5.18;;
68310;SDS011;55157;51.036;17.058;2022-08-25T10:27:36;30.95;;;6.20;;
68310;SDS011;55157;51.036;17.058;2022-08-25T10:30:06;30.20;;;6.47;;
68310;SDS011;55157;51.036;17.058;2022-08-25T10:32:35;31.98;;;5.68;;
68310;SDS011;55157;51.036;17.058;2022-08-25T10:35:05;23.75;;;5.60;;
68310;SDS011;55157;51.036;17.058;2022-08-25T10:37:36;28.70;;;5.80;;
68310;SDS011;55157;51.036;17.058;2022-08-25T10:40:06;34.92;;;7.18;;
68310;SDS011;55157;51.036;17.058;2022-08-25T10:42:35;36.85;;;5.80;;
68310;SDS011;55157;51.036;17.058;2022-08-25T10:45:05;34.78;;;6.20;;
68310;SDS011;55157;51.036;17.058;2022-08-25T10:47:39;25.38;;;4.97;;
68310;SDS011;55157;51.036;17.058;2022-08-25T10:50:09;31.38;;;7.40;;
68310;SDS011;55157;51.036;17.058;2022-08-25T10:52:43;22.52;;;5.95;;
68310;SDS011;55157;51.036;17.058;2022-08-25T10:55:16;26.85;;;5.95;;
68310;SDS011;55157;51.036;17.058;2022-08-25T10:57:44;26.02;;;5.22;;
68310;SDS011;55157;51.036;17.058;2022-08-25T11:00:13;30.60;;;6.20;;
68310;SDS011;55157;51.036;17.058;2022-08-25T11:05:24;33.88;;;6.68;;
68310;SDS011;55157;51.036;17.058;2022-08-25T11:07:52;21.17;;;5.68;;
68310;SDS011;55157;51.036;17.058;2022-08-25T11:10:19;31.23;;;7.03;;
68310;SDS011;55157;51.036;17.058;2022-08-25T11:12:49;26.40;;;5.25;;
68310;SDS011;55157;51.036;17.058;2022-08-25T11:15:16;32.28;;;6.70;;
68310;SDS011;55157;51.036;17.058;2022-08-25T11:17:45;28.23;;;6.88;;
68310;SDS011;55157;51.036;17.058;2022-08-25T11:20:14;38.50;;;6.57;;
68310;SDS011;55157;51.036;17.058;2022-08-25T11:22:40;27.95;;;6.35;;
68310;SDS011;55157;51.036;17.058;2022-08-25T11:25:10;19.27;;;4.30;;
68310;SDS011;55157;51.036;17.058;2022-08-25T11:30:04;33.13;;;6.10;;
68310;SDS011;55157;51.036;17.058;2022-08-25T11:32:30;31.95;;;6.60;;
68310;SDS011;55157;51.036;17.058;2022-08-25T11:34:55;31.88;;;6.45;;
68310;SDS011;55157;51.036;17.058;2022-08-25T11:37:24;28.75;;;6.00;;
68310;SDS011;55157;51.036;17.058;2022-08-25T11:39:58;32.58;;;6.47;;
68310;SDS011;55157;51.036;17.058;2022-08-25T11:42:30;29.10;;;6.03;;
68310;SDS011;55157;51.036;17.058;2022-08-25T11:45:02;42.03;;;6.90;;
68310;SDS011;55157;51.036;17.058;2022-08-25T11:47:33;37.13;;;5.90;;
68310;SDS011;55157;51.036;17.058;2022-08-25T11:50:04;43.67;;;7.65;;
68310;SDS011;55157;51.036;17.058;2022-08-25T11:55:17;35.33;;;7.15;;
68310;SDS011;55157;51.036;17.058;2022-08-25T11:57:44;38.47;;;6.75;;
68310;SDS011;55157;51.036;17.058;2022-08-25T12:00:11;45.83;;;7.20;;
68310;SDS011;55157;51.036;17.058;2022-08-25T12:02:38;41.95;;;7.13;;
68310;SDS011;55157;51.036;17.058;2022-08-25T12:05:04;32.13;;;6.80;;
68310;SDS011;55157;51.036;17.058;2022-08-25T12:10:15;38.95;;;6.43;;
68310;SDS011;55157;51.036;17.058;2022-08-25T12:21:08;38.05;;;5.90;;
68310;SDS011;55157;51.036;17.058;2022-08-25T12:23:34;36.53;;;7.22;;
68310;SDS011;55157;51.036;17.058;2022-08-25T12:26:00;41.65;;;7.03;;
68310;SDS011;55157;51.036;17.058;2022-08-25T12:28:46;35.30;;;7.00;;
68310;SDS011;55157;51.036;17.058;2022-08-25T12:31:18;33.75;;;6.22;;
68310;SDS011;55157;51.036;17.058;2022-08-25T12:33:50;46.78;;;9.00;;
68310;SDS011;55157;51.036;17.058;2022-08-25T12:36:24;37.65;;;7.45;;
68310;SDS011;55157;51.036;17.058;2022-08-25T12:41:16;43.83;;;7.20;;
68310;SDS011;55157;51.036;17.058;2022-08-25T12:43:43;48.42;;;7.40;;
68310;SDS011;55157;51.036;17.058;2022-08-25T12:48:55;38.70;;;8.00;;
68310;SDS011;55157;51.036;17.058;2022-08-25T12:51:21;39.63;;;6.05;;
68310;SDS011;55157;51.036;17.058;2022-08-25T12:53:48;47.63;;;7.55;;
68310;SDS011;55157;51.036;17.058;2022-08-25T12:56:17;49.63;;;7.05;;
68310;SDS011;55157;51.036;17.058;2022-08-25T12:58:46;43.22;;;7.28;;
68310;SDS011;55157;51.036;17.058;2022-08-25T13:01:13;46.75;;;8.25;;
68310;SDS011;55157;51.036;17.058;2022-08-25T13:03:50;38.60;;;8.15;;
68310;SDS011;55157;51.036;17.058;2022-08-25T13:09:24;48.15;;;8.52;;
68310;SDS011;55157;51.036;17.058;2022-08-25T13:11:59;48.25;;;7.03;;
68310;SDS011;55157;51.036;17.058;2022-08-25T13:14:29;70.85;;;7.50;;
68310;SDS011;55157;51.036;17.058;2022-08-25T13:16:58;46.08;;;7.22;;
68310;SDS011;55157;51.036;17.058;2022-08-25T13:19:24;49.58;;;7.68;;
68310;SDS011;55157;51.036;17.058;2022-08-25T13:21:49;51.70;;;7.82;;
68310;SDS011;55157;51.036;17.058;2022-08-25T13:24:17;47.70;;;8.07;;
68310;SDS011;55157;51.036;17.058;2022-08-25T13:26:44;52.35;;;9.30;;
68310;SDS011;55157;51.036;17.058;2022-08-25T13:29:12;43.40;;;7.28;;
68310;SDS011;55157;51.036;17.058;2022-08-25T13:31:48;45.13;;;6.63;;
68310;SDS011;55157;51.036;17.058;2022-08-25T13:34:16;48.92;;;8.52;;
68310;SDS011;55157;51.036;17.058;2022-08-25T13:36:43;54.40;;;7.85;;
68310;SDS011;55157;51.036;17.058;2022-08-25T13:39:13;49.15;;;7.82;;
68310;SDS011;55157;51.036;17.058;2022-08-25T13:41:40;55.75;;;7.25;;
68310;SDS011;55157;51.036;17.058;2022-08-25T13:44:09;50.72;;;6.78;;
68310;SDS011;55157;51.036;17.058;2022-08-25T13:46:35;55.40;;;7.85;;
68310;SDS011;55157;51.036;17.058;2022-08-25T13:49:01;53.87;;;7.63;;
68310;SDS011;55157;51.036;17.058;2022-08-25T13:51:27;39.20;;;6.97;;
68310;SDS011;55157;51.036;17.058;2022-08-25T13:53:53;41.60;;;7.78;;
68310;SDS011;55157;51.036;17.058;2022-08-25T13:56:23;48.25;;;7.70;;
68310;SDS011;55157;51.036;17.058;2022-08-25T13:58:49;52.78;;;7.22;;
68310;SDS011;55157;51.036;17.058;2022-08-25T14:01:16;43.50;;;7.13;;
68310;SDS011;55157;51.036;17.058;2022-08-25T14:03:42;51.80;;;9.02;;
68310;SDS011;55157;51.036;17.058;2022-08-25T14:06:10;53.30;;;7.85;;
68310;SDS011;55157;51.036;17.058;2022-08-25T14:08:43;52.75;;;7.78;;
68310;SDS011;55157;51.036;17.058;2022-08-25T14:11:09;41.55;;;7.88;;
68310;SDS011;55157;51.036;17.058;2022-08-25T14:13:35;64.63;;;8.25;;
68310;SDS011;55157;51.036;17.058;2022-08-25T14:16:08;44.97;;;9.95;;
68310;SDS011;55157;51.036;17.058;2022-08-25T14:18:35;53.65;;;8.60;;
68310;SDS011;55157;51.036;17.058;2022-08-25T14:21:01;45.17;;;7.68;;
68310;SDS011;55157;51.036;17.058;2022-08-25T14:23:28;58.83;;;8.18;;
68310;SDS011;55157;51.036;17.058;2022-08-25T14:25:54;35.15;;;6.20;;
68310;SDS011;55157;51.036;17.058;2022-08-25T14:28:21;50.63;;;7.80;;
68310;SDS011;55157;51.036;17.058;2022-08-25T14:30:48;45.47;;;7.82;;
68310;SDS011;55157;51.036;17.058;2022-08-25T14:33:14;49.78;;;8.02;;
68310;SDS011;55157;51.036;17.058;2022-08-25T14:35:41;46.25;;;7.00;;
68310;SDS011;55157;51.036;17.058;2022-08-25T14:38:08;46.17;;;6.28;;
68310;SDS011;55157;51.036;17.058;2022-08-25T14:40:34;48.05;;;7.88;;
68310;SDS011;55157;51.036;17.058;2022-08-25T14:42:59;42.83;;;8.05;;